Time;durP1;ratioP1;P1;durP2;ratioP2;P2;SDS_P1;SDS_P2;PMS_P1;PMS_P2;Temp;Humidity;BMP_temperature;BMP_pressure;BME280_temperature;BME280_humidity;BME280_pressure;Samples;Min_cycle;Max_cycle;Signal;HPM_P1;HPM_P2
2022/04/13 00:02:02;;;;;;;7.50;5.00;;;;;;;;;;6133548;23;20016;-88
2022/04/13 00:04:47;;;;;;;10.70;5.63;;;;;;;;;;6113807;23;20021;-88
2022/04/13 00:07:31;;;;;;;8.73;4.97;;;;;;;;;;6134196;23;20028;-88
2022/04/13 00:10:16;;;;;;;8.98;5.40;;;;;;;;;;6133597;23;20122;-88
2022/04/13 00:13:00;;;;;;;7.88;5.20;;;;;;;;;;6112857;23;20016;-88
2022/04/13 00:15:45;;;;;;;9.02;5.95;;;;;;;;;;6134435;23;20017;-88
2022/04/13 00:18:32;;;;;;;8.35;5.15;;;;;;;;;;6113935;23;20028;-89
2022/04/13 00:21:17;;;;;;;8.80;5.10;;;;;;;;;;6133574;23;20044;-88
2022/04/13 00:24:01;;;;;;;8.27;5.78;;;;;;;;;;6113175;23;20425;-87
2022/04/13 00:26:46;;;;;;;9.40;4.90;;;;;;;;;;6134037;23;20454;-87
2022/04/13 00:29:30;;;;;;;8.75;4.88;;;;;;;;;;6134027;23;20063;-88
2022/04/13 00:32:15;;;;;;;10.90;5.70;;;;;;;;;;6155619;23;20849;-88
2022/04/13 00:35:04;;;;;;;9.95;5.53;;;;;;;;;;6133366;23;20052;-87
2022/04/13 00:37:49;;;;;;;9.15;5.68;;;;;;;;;;6134791;23;20100;-88
2022/04/13 00:40:41;;;;;;;11.45;6.30;;;12.70;99.90;;;;;;6134132;23;20053;-87
2022/04/13 00:43:26;;;;;;;9.55;5.47;;;;;;;;;;6156076;23;20016;-88
2022/04/13 00:46:10;;;;;;;9.60;5.82;;;;;;;;;;6133010;23;20105;-87
2022/04/13 00:48:55;;;;;;;9.27;6.30;;;;;;;;;;6133742;23;20149;-87
2022/04/13 00:51:39;;;;;;;10.55;6.60;;;;;;;;;;6113318;23;20040;-87
2022/04/13 00:54:25;;;;;;;12.88;6.25;;;12.40;99.90;;;;;;6133594;23;20017;-87
2022/04/13 00:57:11;;;;;;;10.75;6.63;;;;;;;;;;6132973;23;20459;-88
2022/04/13 00:59:57;;;;;;;10.38;6.60;;;12.40;99.90;;;;;;6155769;23;20032;-87
2022/04/13 01:02:43;;;;;;;7.75;5.90;;;12.40;99.90;;;;;;6133362;23;20016;-88
2022/04/13 01:05:28;;;;;;;13.85;7.47;;;;;;;;;;6155669;23;20067;-88
2022/04/13 01:08:13;;;;;;;12.75;7.18;;;;;;;;;;6132916;23;20024;-88
2022/04/13 01:11:00;;;;;;;11.48;6.90;;;12.40;99.90;;;;;;6133505;23;20015;-88
2022/04/13 01:13:45;;;;;;;11.18;7.07;;;;;;;;;;6133597;23;20388;-89
2022/04/13 01:16:30;;;;;;;11.88;7.22;;;;;;;;;;6133853;23;20031;-88
2022/04/13 01:19:17;;;;;;;12.20;7.28;;;12.40;99.90;;;;;;6133159;23;20023;-88
2022/04/13 01:22:19;;;;;;;12.15;7.50;;;12.40;99.90;;;;;;6154932;23;20021;-89
2022/04/13 01:25:04;;;;;;;13.93;7.35;;;;;;;;;;6155094;23;20437;-90
2022/04/13 01:27:48;;;;;;;10.95;7.38;;;;;;;;;;6133324;23;20359;-88
2022/04/13 01:30:33;;;;;;;10.85;7.45;;;;;;;;;;6133855;23;20072;-89
2022/04/13 01:33:17;;;;;;;11.10;7.60;;;;;;;;;;6132840;23;20451;-88
2022/04/13 01:36:04;;;;;;;10.02;7.03;;;;;;;;;;6133139;23;20064;-89
2022/04/13 01:38:49;;;;;;;14.05;7.43;;;;;;;;;;6154767;23;20099;-88
2022/04/13 01:41:34;;;;;;;12.30;7.75;;;;;;;;;;6133264;23;20059;-88
2022/04/13 01:44:24;;;;;;;14.20;8.13;;;;;;;;;;6132804;23;20379;-88
2022/04/13 01:47:09;;;;;;;14.10;8.30;;;;;;;;;;6155074;23;20092;-88
2022/04/13 01:49:54;;;;;;;13.43;8.10;;;;;;;;;;6133642;23;20064;-87
2022/04/13 01:52:39;;;;;;;12.60;8.20;;;;;;;;;;6133444;23;20068;-89
2022/04/13 01:55:24;;;;;;;13.00;8.75;;;;;;;;;;6155174;23;20439;-88
2022/04/13 01:58:08;;;;;;;13.98;8.65;;;;;;;;;;6112095;23;20060;-91
2022/04/13 02:00:56;;;;;;;13.90;8.35;;;;;;;;;;6112803;23;20017;-88
2022/04/13 02:03:41;;;;;;;16.33;9.50;;;;;;;;;;6133045;23;20032;-87
2022/04/13 02:06:26;;;;;;;13.98;8.25;;;;;;;;;;6154414;23;20016;-88
2022/04/13 02:09:11;;;;;;;12.30;8.73;;;;;;;;;;6112167;23;20024;-88
2022/04/13 02:11:56;;;;;;;14.68;8.95;;;;;;;;;;6133125;23;20020;-87
2022/04/13 02:14:41;;;;;;;15.82;9.40;;;;;;;;;;6132878;23;20347;-88
2022/04/13 02:17:26;;;;;;;13.00;9.30;;;;;;;;;;6154046;23;20083;-88
2022/04/13 02:20:11;;;;;;;12.23;8.65;;;;;;;;;;6132389;23;20012;-92
2022/04/13 02:22:55;;;;;;;15.63;9.45;;;;;;;;;;6132957;23;20036;-88
2022/04/13 02:25:40;;;;;;;15.00;9.55;;;;;;;;;;6155033;23;20079;-88
2022/04/13 02:28:24;;;;;;;15.25;9.50;;;;;;;;;;6111470;23;20025;-88
2022/04/13 02:31:09;;;;;;;16.98;9.27;;;;;;;;;;6155233;23;20024;-88
2022/04/13 02:33:56;;;;;;;15.13;9.52;;;;;;;;;;6112368;23;20017;-88
2022/04/13 02:36:40;;;;;;;14.10;9.43;;;;;;;;;;6154805;23;20020;-87
2022/04/13 02:39:25;;;;;;;12.75;9.40;;;;;;;;;;6111848;23;20032;-88
2022/04/13 02:42:12;;;;;;;17.73;9.90;;;;;;;;;;6133146;23;20020;-88
2022/04/13 02:44:57;;;;;;;15.50;9.48;;;;;;;;;;6154885;23;20447;-89
2022/04/13 02:47:41;;;;;;;15.95;10.48;;;;;;;;;;6133160;23;20072;-88
2022/04/13 02:50:29;;;;;;;15.23;9.30;;;;;;;;;;6111636;23;20052;-88
2022/04/13 02:53:13;;;;;;;12.88;9.82;;;;;;;;;;6132218;23;20447;-90
2022/04/13 02:55:59;;;;;;;16.17;10.48;;;11.90;99.90;;;;;;6112200;23;20020;-85
2022/04/13 02:58:44;;;;;;;17.73;9.57;;;;;;;;;;6132696;23;20339;-85
2022/04/13 03:01:28;;;;;;;16.80;10.05;;;;;;;;;;6132122;23;20084;-86
2022/04/13 03:04:13;;;;;;;16.08;10.65;;;;;;;;;;6132639;23;20012;-85
2022/04/13 03:06:58;;;;;;;16.98;10.10;;;;;;;;;;6132407;23;20335;-85
2022/04/13 03:09:43;;;;;;;17.30;10.65;;;;;;;;;;6154875;23;20013;-85
2022/04/13 03:12:28;;;;;;;19.10;10.40;;;;;;;;;;6131766;23;20453;-85
2022/04/13 03:15:14;;;;;;;16.63;10.80;;;;;;;;;;6132361;23;20012;-89
2022/04/13 03:17:59;;;;;;;21.60;10.38;;;;;;;;;;6112549;23;20095;-86
2022/04/13 03:20:44;;;;;;;17.73;11.15;;;;;;;;;;6112101;23;20033;-86
2022/04/13 03:23:28;;;;;;;21.13;10.48;;;;;;;;;;6131516;23;20025;-86
2022/04/13 03:26:13;;;;;;;15.02;9.13;;;;;;;;;;6132195;23;20013;-86
2022/04/13 03:28:58;;;;;;;22.02;10.25;;;;;;;;;;6132684;23;20020;-85
2022/04/13 03:31:42;;;;;;;17.00;9.88;;;;;;;;;;6134016;23;20072;-86
2022/04/13 03:34:28;;;;;;;19.65;10.13;;;;;;;;;;6113148;23;20064;-86
2022/04/13 03:37:12;;;;;;;18.02;9.63;;;;;;;;;;6134108;23;20025;-85
2022/04/13 03:39:57;;;;;;;14.57;10.00;;;;;;;;;;6134455;23;20344;-86
2022/04/13 03:42:42;;;;;;;16.20;10.15;;;12.00;99.90;;;;;;6113156;23;20020;-86
2022/04/13 03:45:29;;;;;;;18.63;10.13;;;;;;;;;;6155757;23;20017;-86
2022/04/13 03:48:14;;;;;;;21.23;12.60;;;;;;;;;;6156361;23;20020;-86
2022/04/13 03:51:00;;;;;;;16.35;10.68;;;;;;;;;;6134179;23;20016;-86
2022/04/13 03:53:44;;;;;;;20.42;10.52;;;;;;;;;;6113356;23;20093;-86
2022/04/13 04:01:40;;;;;;;19.58;10.85;;;;;;;;;;6213434;22;20106;-86
2022/04/13 04:04:25;;;;;;;17.10;10.90;;;;;;;;;;6193802;23;20011;-89
2022/04/13 04:07:09;;;;;;;18.75;11.90;;;;;;;;;;6193804;23;20090;-86
2022/04/13 04:09:54;;;;;;;17.92;11.02;;;;;;;;;;6195212;23;20510;-87
2022/04/13 04:12:41;;;;;;;17.92;11.88;;;;;;;;;;6194187;23;20063;-86
2022/04/13 04:15:28;;;;;;;22.85;11.85;;;;;;;;;;6192981;23;20019;-87
2022/04/13 04:18:13;;;;;;;20.95;11.88;;;;;;;;;;6172226;23;20111;-86
2022/04/13 04:20:58;;;;;;;18.27;11.50;;;;;;;;;;6193424;23;20070;-86
2022/04/13 04:23:42;;;;;;;18.92;11.65;;;;;;;;;;6192875;23;20075;-86
2022/04/13 04:26:27;;;;;;;16.27;12.07;;;;;;;;;;6192637;23;20338;-89
2022/04/13 04:29:12;;;;;;;20.13;12.27;;;;;;;;;;6193385;23;20023;-87
2022/04/13 04:31:59;;;;;;;21.02;12.35;;;;;;;;;;6193426;23;20020;-86
2022/04/13 04:34:44;;;;;;;20.20;12.77;;;;;;;;;;6215061;23;20011;-87
2022/04/13 04:37:29;;;;;;;22.00;12.32;;;;;;;;;;6192531;23;20457;-89
2022/04/13 04:40:13;;;;;;;19.45;12.40;;;;;;;;;;6192991;23;20059;-87
2022/04/13 04:43:00;;;;;;;25.60;13.05;;;;;;;;;;6193167;23;20047;-86
2022/04/13 04:45:45;;;;;;;23.05;12.93;;;;;;;;;;6192691;23;20038;-87
2022/04/13 04:48:32;;;;;;;21.00;12.13;;;;;;;;;;6215001;23;20368;-88
2022/04/13 04:51:20;;;;;;;21.15;13.00;;;;;;;;;;6192972;23;20015;-86
2022/04/13 04:54:04;;;;;;;19.00;12.68;;;;;;;;;;6215658;23;20477;-86
2022/04/13 04:56:49;;;;;;;18.70;13.10;;;;;;;;;;6215089;23;20335;-87
2022/04/13 04:59:33;;;;;;;20.02;11.93;;;;;;;;;;6192138;23;20067;-87
2022/04/13 05:02:18;;;;;;;24.02;12.85;;;;;;;;;;6192504;23;20461;-86
2022/04/13 05:05:03;;;;;;;22.65;12.45;;;;;;;;;;6193126;23;20063;-87
2022/04/13 05:07:47;;;;;;;22.63;12.73;;;;;;;;;;6191765;23;20028;-87
2022/04/13 05:10:32;;;;;;;22.80;13.20;;;;;;;;;;6214817;23;20514;-89
2022/04/13 05:13:23;;;;;;;22.17;13.23;;;;;;;;;;6192870;23;20334;-88
2022/04/13 05:16:08;;;;;;;18.83;13.07;;;;;;;;;;6192725;23;20015;-87
2022/04/13 05:18:55;;;;;;;19.60;12.70;;;;;;;;;;6192008;23;20634;-87
2022/04/13 05:21:40;;;;;;;24.00;13.40;;;;;;;;;;6171968;23;20139;-88
2022/04/13 05:24:24;;;;;;;20.80;12.88;;;;;;;;;;6192816;23;20458;-87
2022/04/13 05:27:09;;;;;;;22.27;11.80;;;;;;;;;;6192805;23;20077;-87
2022/04/13 05:29:54;;;;;;;22.05;12.80;;;;;;;;;;6193244;23;20011;-87
2022/04/13 05:32:49;;;;;;;21.88;13.20;;;11.70;99.90;;;;;;6193643;23;20047;-87
2022/04/13 05:35:34;;;;;;;24.48;13.02;;;;;;;;;;6193761;23;20015;-89
2022/04/13 05:38:19;;;;;;;21.13;13.05;;;;;;;;;;6194348;23;20131;-87
2022/04/13 05:41:07;;;;;;;20.17;13.02;;;;;;;;;;6195324;23;20015;-90
2022/04/13 05:43:54;;;;;;;21.52;13.40;;;;;;;;;;6223632;22;20016;-90
2022/04/13 05:46:39;;;;;;;26.98;13.93;;;;;;;;;;6176793;23;20035;-87
2022/04/13 05:49:23;;;;;;;22.80;14.32;;;;;;;;;;6195533;23;20071;-87
2022/04/13 05:52:08;;;;;;;26.75;14.57;;;;;;;;;;6196434;23;20012;-87
2022/04/13 05:54:53;;;;;;;24.80;14.40;;;;;;;;;;6193345;23;20059;-87
2022/04/13 05:57:37;;;;;;;26.05;13.50;;;;;;;;;;6192632;23;20039;-88
2022/04/13 06:00:22;;;;;;;23.77;16.05;;;;;;;;;;6172121;23;20338;-87
2022/04/13 06:03:10;;;;;;;25.38;14.80;;;;;;;;;;6215086;23;20074;-86
2022/04/13 06:05:55;;;;;;;23.05;14.25;;;;;;;;;;6191832;23;20031;-86
2022/04/13 06:08:39;;;;;;;26.05;15.02;;;;;;;;;;6192023;23;20083;-90
2022/04/13 06:11:24;;;;;;;22.33;14.93;;;;;;;;;;6216318;23;20055;-87
2022/04/13 06:14:08;;;;;;;22.45;15.25;;;;;;;;;;6215086;23;20015;-88
2022/04/13 06:16:53;;;;;;;23.63;15.05;;;;;;;;;;6191754;23;20012;-86
2022/04/13 06:19:37;;;;;;;27.83;14.95;;;;;;;;;;6192703;23;20026;-88
2022/04/13 06:22:22;;;;;;;22.52;15.18;;;;;;;;;;6192570;23;20453;-88
2022/04/13 06:25:07;;;;;;;25.98;15.77;;;;;;;;;;6192323;23;20016;-88
2022/04/13 06:27:52;;;;;;;25.02;15.65;;;;;;;;;;6192103;23;20019;-88
2022/04/13 06:30:37;;;;;;;26.98;15.60;;;;;;;;;;6192724;23;20035;-88
2022/04/13 06:33:21;;;;;;;25.83;15.55;;;;;;;;;;6171743;23;20346;-86
2022/04/13 06:36:08;;;;;;;27.23;15.63;;;;;;;;;;6170844;23;20339;-86
2022/04/13 06:38:54;;;;;;;22.63;14.55;;;;;;;;;;6171300;23;20019;-88
2022/04/13 06:41:39;;;;;;;25.70;15.10;;;;;;;;;;6215902;23;20016;-86
2022/04/13 06:44:24;;;;;;;27.33;14.48;;;;;;;;;;6175204;23;20024;-89
2022/04/13 06:47:08;;;;;;;24.25;14.20;;;;;;;;;;6193980;23;20011;-89
2022/04/13 06:49:53;;;;;;;26.77;15.00;;;;;;;;;;6191940;23;20484;-88
2022/04/13 06:52:38;;;;;;;24.73;14.20;;;;;;;;;;6192261;23;20442;-88
2022/04/13 06:55:26;;;;;;;24.90;14.38;;;;;;;;;;6214881;23;20351;-86
2022/04/13 06:58:11;;;;;;;29.77;14.43;;;;;;;;;;6191916;23;20078;-87
2022/04/13 07:00:58;;;;;;;22.02;13.02;;;;;;;;;;6213979;23;20031;-91
2022/04/13 07:03:45;;;;;;;20.67;13.50;;;;;;;;;;6192442;23;20469;-89
2022/04/13 07:06:32;;;;;;;24.85;13.57;;;;;;;;;;6192409;23;20435;-89
2022/04/13 07:09:18;;;;;;;21.00;12.43;;;;;;;;;;6192279;23;20104;-91
2022/04/13 07:12:03;;;;;;;20.25;12.57;;;;;;;;;;6191792;23;20043;-89
2022/04/13 07:14:47;;;;;;;23.75;13.23;;;;;;;;;;6192087;23;20016;-91
2022/04/13 07:17:35;;;;;;;23.00;12.80;;;;;;;;;;6191993;23;20343;-89
2022/04/13 07:20:20;;;;;;;27.83;13.43;;;;;;;;;;6192453;23;20027;-90
2022/04/13 07:23:08;;;;;;;22.42;12.57;;;;;;;;;;6191974;23;20047;-91
2022/04/13 07:25:53;;;;;;;21.35;12.48;;;;;;;;;;6214091;23;20082;-90
2022/04/13 07:28:37;;;;;;;20.08;12.65;;;;;;;;;;6192701;23;20023;-89
2022/04/13 07:31:22;;;;;;;20.77;12.60;;;;;;;;;;6192425;23;20011;-89
2022/04/13 07:34:07;;;;;;;18.80;12.63;;;;;;;;;;6170615;23;20059;-89
2022/04/13 07:37:10;;;;;;;20.77;10.85;;;;;;;;;;6191787;23;20015;-91
2022/04/13 07:39:58;;;;;;;20.40;12.68;;;;;;;;;;6191235;23;20051;-90
2022/04/13 07:42:56;;;;;;;;;;;;;;;;;;;;;
2022/04/13 07:45:46;;;;;;;19.48;12.02;;;;;;;;;;6214943;23;20098;-93
2022/04/13 07:48:31;;;;;;;18.55;11.52;;;;;;;;;;6193469;23;20024;-89
2022/04/13 07:51:16;;;;;;;19.75;11.25;;;;;;;;;;6190207;23;20016;-88
2022/04/13 07:54:03;;;;;;;23.85;11.73;;;14.80;99.90;;;;;;6191487;23;20488;-88
2022/04/13 07:56:48;;;;;;;18.77;11.27;;;;;;;;;;6194537;23;20107;-89
2022/04/13 07:59:35;;;;;;;16.95;10.57;;;;;;;;;;6214846;23;20078;-87
2022/04/13 08:02:20;;;;;;;17.85;10.43;;;;;;;;;;6191260;23;20477;-87
2022/04/13 08:05:05;;;;;;;19.15;10.50;;;;;;;;;;6191430;23;20058;-88
2022/04/13 08:07:50;;;;;;;19.98;10.45;;;;;;;;;;6191920;23;20339;-87
2022/04/13 08:10:37;;;;;;;20.00;9.45;;;;;;;;;;6192006;23;20015;-89
2022/04/13 08:13:22;;;;;;;15.32;9.35;;;;;;;;;;6191919;23;20028;-88
2022/04/13 08:16:06;;;;;;;17.20;9.48;;;;;;;;;;6192594;23;20039;-87
2022/04/13 08:18:51;;;;;;;17.30;9.60;;;;;;;;;;6193861;23;20063;-88
2022/04/13 08:21:37;;;;;;;21.52;9.90;;;;;;;;;;6193700;23;20011;-88
2022/04/13 08:24:24;;;;;;;16.90;9.73;;;;;;;;;;6193563;23;20042;-89
2022/04/13 08:27:10;;;;;;;17.17;9.95;;;;;;;;;;6192988;23;20058;-88
2022/04/13 08:29:55;;;;;;;13.95;8.45;;;;;;;;;;6193680;23;20028;-88
2022/04/13 08:32:40;;;;;;;19.35;9.23;;;;;;;;;;6193380;23;20019;-88
2022/04/13 08:35:27;;;;;;;13.32;8.00;;;;;;;;;;6193793;23;20011;-88
2022/04/13 08:38:12;;;;;;;16.63;8.48;;;;;;;;;;6172503;23;20024;-88
2022/04/13 08:41:01;;;;;;;14.27;8.40;;;15.30;99.90;;;;;;6193351;23;20127;-89
2022/04/13 08:43:49;;;;;;;17.23;7.90;;;;;;;;;;6216144;23;20111;-88
2022/04/13 08:46:36;;;;;;;12.20;8.10;;;15.70;99.90;;;;;;6193309;23;20039;-89
2022/04/13 08:49:21;;;;;;;14.00;8.90;;;;;;;;;;6192642;23;20020;-88
2022/04/13 08:52:08;;;;;;;13.18;7.75;;;;;;;;;;6192850;23;20392;-88
2022/04/13 08:55:02;;;;;;;19.02;7.50;;;;;;;;;;6193531;23;20384;-89
2022/04/13 08:57:48;;;;;;;13.82;7.40;;;;;;;;;;6193529;23;20096;-89
2022/04/13 09:00:35;;;;;;;13.57;7.15;;;;;;;;;;6193229;23;20343;-87
2022/04/13 09:03:29;;;;;;;15.07;7.78;;;16.50;99.90;;;;;;6192676;23;20282;-89
2022/04/13 09:06:23;;;;;;;11.48;6.70;;;16.50;99.90;;;;;;6192450;23;20075;-90
2022/04/13 09:09:43;;;;;;;11.85;6.00;;;16.40;99.90;;;;;;6192523;23;20023;-89
2022/04/13 09:12:33;;;;;;;13.45;6.63;;;16.50;99.90;;;;;;6193211;23;20016;-88
2022/04/13 09:15:19;;;;;;;13.90;7.57;;;;;;;;;;6192703;23;20458;-88
2022/04/13 09:18:03;;;;;;;11.13;6.40;;;;;;;;;;6192984;23;20334;-90
2022/04/13 09:20:48;;;;;;;14.68;6.35;;;;;;;;;;6193516;23;20059;-89
2022/04/13 09:23:33;;;;;;;11.45;6.35;;;;;;;;;;6192985;23;20092;-88
2022/04/13 09:26:18;;;;;;;12.98;5.80;;;17.70;99.90;;;;;;6192401;23;20453;-89
2022/04/13 09:29:03;;;;;;;11.48;5.80;;;;;;;;;;6192808;23;20342;-91
2022/04/13 09:31:48;;;;;;;9.70;4.82;;;18.20;99.90;;;;;;6193065;23;20015;-87
2022/04/13 09:34:32;;;;;;;11.38;4.80;;;;;;;;;;6193183;23;20453;-88
2022/04/13 09:37:19;;;;;;;10.45;4.85;;;;;;;;;;6171220;23;20020;-88
2022/04/13 09:40:04;;;;;;;10.23;4.80;;;;;;;;;;6194779;23;20015;-89
2022/04/13 09:42:49;;;;;;;10.40;5.05;;;;;;;;;;6193281;23;20015;-88
2022/04/13 09:45:40;;;;;;;11.63;5.32;;;18.30;99.90;;;;;;6192486;23;20015;-87
2022/04/13 09:48:26;;;;;;;12.30;4.75;;;;;;;;;;6192006;23;20027;-87
2022/04/13 09:51:11;;;;;;;7.53;4.18;;;;;;;;;;6192075;23;20086;-87
2022/04/13 09:53:55;;;;;;;10.15;4.20;;;;;;;;;;6215066;23;20015;-87
2022/04/13 09:56:47;;;;;;;9.48;5.53;;;18.70;99.90;;;;;;6192647;23;20047;-87
2022/04/13 09:59:32;;;;;;;11.20;6.15;;;;;;;;;;6171512;23;20089;-87
2022/04/13 10:02:35;;;;;;;10.85;5.30;;;18.90;99.90;;;;;;6182857;23;20339;-88
2022/04/13 10:05:23;;;;;;;9.20;4.93;;;19.00;99.90;;;;;;6183124;23;20020;-88
2022/04/13 10:08:10;;;;;;;8.27;4.18;;;19.10;99.90;;;;;;6162616;23;20517;-90
2022/04/13 10:10:57;;;;;;;11.68;4.47;;;19.10;99.90;;;;;;6183951;23;20016;-88
2022/04/13 10:13:42;;;;;;;10.07;5.28;;;;;;;;;;6185427;23;20339;-88
2022/04/13 10:16:34;;;;;;;9.30;4.65;;;19.40;99.90;;;;;;6184286;23;20084;-90
2022/04/13 10:19:20;;;;;;;9.88;4.47;;;;;;;;;;6162061;23;20109;-88
2022/04/13 10:22:07;;;;;;;7.65;4.30;;;;;;;;;;6184029;23;20517;-87
2022/04/13 10:24:53;;;;;;;11.07;5.47;;;;;;;;;;6183925;23;20064;-88
2022/04/13 10:28:12;;;;;;;9.65;4.05;;;19.80;99.90;;;;;;6183583;23;20151;-87
2022/04/13 10:31:07;;;;;;;9.65;4.30;;;19.90;99.90;;;;;;6183770;23;20016;-88
2022/04/13 10:33:52;;;;;;;9.18;4.53;;;;;;;;;;6183540;23;20016;-88
2022/04/13 10:36:37;;;;;;;9.13;4.15;;;;;;;;;;6183359;23;20335;-88
2022/04/13 10:39:22;;;;;;;6.25;3.25;;;;;;;;;;6184008;23;20020;-87
2022/04/13 10:42:10;;;;;;;7.43;4.60;;;20.50;99.90;;;;;;6183357;23;20019;-88
2022/04/13 10:45:05;;;;;;;8.00;4.00;;;20.50;99.90;;;;;;6183537;23;20330;-88
2022/04/13 10:48:09;;;;;;;6.28;3.40;;;20.60;99.90;;;;;;6162635;23;20023;-87
2022/04/13 10:51:02;;;;;;;6.90;3.00;;;20.60;99.90;;;;;;6183235;23;20335;-89
2022/04/13 10:53:59;;;;;;;8.48;3.33;;;20.60;99.90;;;;;;6183738;23;20012;-88
2022/04/13 10:56:50;;;;;;;8.13;2.88;;;20.50;99.90;;;;;;6183248;23;20027;-87
2022/04/13 10:59:56;;;;;;;8.60;3.65;;;20.50;99.90;;;;;;6183988;23;20526;-87
2022/04/13 11:03:07;;;;;;;6.20;3.28;;;20.50;99.90;;;;;;6182526;23;20083;-88
2022/04/13 11:05:53;;;;;;;7.88;3.35;;;20.60;99.90;;;;;;6183548;23;20012;-88
2022/04/13 11:08:53;;;;;;;5.97;2.63;;;20.60;99.80;;;;;;6183820;23;20552;-88
2022/04/13 11:11:38;;;;;;;6.63;2.83;;;;;;;;;;6182595;23;20055;-87
2022/04/13 11:14:24;;;;;;;6.82;2.45;;;20.60;99.60;;;;;;6182779;23;20387;-87
2022/04/13 11:17:08;;;;;;;5.43;2.63;;;;;;;;;;6183337;23;20442;-87
2022/04/13 11:20:16;;;;;;;4.72;2.17;;;20.40;99.50;;;;;;6183780;23;20015;-88
2022/04/13 11:23:33;;;;;;;7.22;2.70;;;20.30;99.30;;;;;;6189566;23;20015;-87
2022/04/13 11:26:34;;;;;;;9.90;2.92;;;;;;;;;;6184879;23;20056;-91
2022/04/13 11:29:21;;;;;;;8.05;3.22;;;20.50;99.40;;;;;;6185125;23;20075;-90
2022/04/13 11:32:13;;;;;;;5.63;2.50;;;20.60;98.30;;;;;;6194308;23;20019;-87
2022/04/13 11:34:59;;;;;;;8.35;3.20;;;20.50;97.90;;;;;;6187161;23;20016;-86
2022/04/13 11:37:44;;;;;;;6.85;2.63;;;;;;;;;;6162136;23;20335;-87
2022/04/13 11:40:29;;;;;;;6.75;2.53;;;;;;;;;;6182932;23;20020;-87
2022/04/13 11:43:14;;;;;;;6.57;2.55;;;19.60;97.40;;;;;;6183366;23;20339;-87
2022/04/13 11:45:59;;;;;;;7.63;2.60;;;19.40;98.20;;;;;;6183057;23;20020;-87
2022/04/13 11:48:44;;;;;;;8.25;3.60;;;;;;;;;;6182709;23;20035;-87
2022/04/13 11:51:30;;;;;;;6.75;2.80;;;;;;;;;;6163360;23;20109;-87
2022/04/13 11:54:14;;;;;;;7.90;3.45;;;18.80;99.90;;;;;;6186819;23;20015;-86
2022/04/13 11:56:59;;;;;;;7.70;3.70;;;;;;;;;;6184796;23;20092;-87
2022/04/13 11:59:47;;;;;;;7.03;3.50;;;18.40;99.90;;;;;;6184325;23;20020;-87
2022/04/13 12:02:34;;;;;;;12.15;6.07;;;18.20;99.90;;;;;;6183860;23;20497;-86
2022/04/13 12:05:23;;;;;;;11.07;6.80;;;18.20;99.90;;;;;;6186062;23;20103;-87
2022/04/13 12:08:16;;;;;;;13.13;7.38;;;18.20;99.90;;;;;;6184896;23;20020;-87
2022/04/13 12:11:03;;;;;;;13.32;5.95;;;18.20;99.90;;;;;;6185132;23;20092;-88
2022/04/13 12:13:53;;;;;;;15.85;5.75;;;18.30;99.90;;;;;;6184094;23;20339;-88
2022/04/13 12:16:41;;;;;;;9.75;4.65;;;18.30;99.90;;;;;;6185381;23;20438;-86
2022/04/13 12:19:44;;;;;;;8.35;2.10;;;18.30;99.90;;;;;;6184100;23;20020;-89
2022/04/13 12:22:34;;;;;;;3.95;1.70;;;18.10;99.90;;;;;;6185364;23;20088;-87
2022/04/13 12:25:21;;;;;;;5.85;1.95;;;;;;;;;;6184676;23;20067;-88
2022/04/13 12:28:06;;;;;;;5.82;2.22;;;;;;;;;;6185697;23;20072;-89
2022/04/13 12:30:55;;;;;;;5.13;1.90;;;17.80;99.90;;;;;;6185112;23;20084;-87
2022/04/13 12:33:40;;;;;;;8.65;2.97;;;;;;;;;;6185460;23;20024;-87
2022/04/13 12:36:25;;;;;;;7.38;2.65;;;;;;;;;;6184556;23;20016;-88
2022/04/13 12:39:11;;;;;;;7.05;3.05;;;;;;;;;;6184915;23;20332;-87
2022/04/13 12:41:56;;;;;;;9.70;3.38;;;;;;;;;;6184560;23;20308;-87
2022/04/13 12:44:46;;;;;;;8.27;3.72;;;;;;;;;;6183955;23;20047;-88
2022/04/13 12:47:31;;;;;;;11.88;3.50;;;;;;;;;;6183780;23;20024;-88
2022/04/13 12:50:16;;;;;;;9.60;3.42;;;17.30;99.90;;;;;;6184593;23;20056;-87
2022/04/13 12:53:02;;;;;;;8.82;4.07;;;;;;;;;;6184394;23;20113;-87
2022/04/13 12:55:51;;;;;;;12.27;3.63;;;17.30;99.90;;;;;;6163201;23;20020;-88
2022/04/13 12:58:38;;;;;;;10.10;3.33;;;17.30;99.90;;;;;;6184004;23;20016;-88
2022/04/13 13:01:23;;;;;;;7.22;2.70;;;17.40;99.90;;;;;;6189458;23;20774;-87
2022/04/13 13:04:11;;;;;;;12.60;3.78;;;;;;;;;;6216777;23;20011;-87
2022/04/13 13:07:04;;;;;;;8.20;2.72;;;17.40;99.90;;;;;;6193248;23;20092;-87
2022/04/13 13:09:57;;;;;;;11.88;3.20;;;;;;;;;;6192489;23;20917;-87
2022/04/13 13:12:42;;;;;;;8.65;2.80;;;;;;;;;;6192436;23;20012;-88
2022/04/13 13:15:36;;;;;;;9.20;3.55;;;;;;;;;;6215606;23;20391;-88
2022/04/13 13:18:21;;;;;;;9.40;3.35;;;;;;;;;;6192812;23;20345;-87
2022/04/13 13:21:05;;;;;;;7.07;3.17;;;;;;;;;;6193175;23;20020;-88
2022/04/13 13:23:50;;;;;;;8.55;2.83;;;17.20;99.90;;;;;;6171039;23;20472;-87
2022/04/13 13:26:37;;;;;;;10.23;2.97;;;;;;;;;;6191378;23;20442;-93
2022/04/13 13:29:22;;;;;;;10.68;3.15;;;;;;;;;;6192570;23;20039;-88
2022/04/13 13:32:14;;;;;;;12.52;4.03;;;16.90;99.90;;;;;;6192689;23;20027;-88
2022/04/13 13:35:00;;;;;;;12.43;3.72;;;16.90;99.90;;;;;;6192419;23;20471;-88
2022/04/13 13:37:52;;;;;;;10.30;3.78;;;16.70;99.90;;;;;;6191895;23;20086;-87
2022/04/13 13:40:40;;;;;;;11.68;3.47;;;;;;;;;;6192091;23;20012;-87
2022/04/13 13:43:27;;;;;;;9.60;3.80;;;;;;;;;;6192572;23;20011;-88
2022/04/13 13:46:21;;;;;;;9.98;3.30;;;16.30;99.90;;;;;;6193189;23;20054;-87
2022/04/13 13:49:06;;;;;;;10.52;3.10;;;;;;;;;;6192352;23;20047;-86
2022/04/13 13:51:52;;;;;;;10.20;4.10;;;16.10;99.90;;;;;;6170051;23;20019;-87
2022/04/13 13:54:37;;;;;;;7.35;3.33;;;;;;;;;;6213939;23;20019;-90
2022/04/13 13:57:29;;;;;;;7.90;2.97;;;;;;;;;;6191654;23;20449;-88
2022/04/13 14:00:19;;;;;;;9.50;3.33;;;;;;;;;;6172382;23;20059;-87
2022/04/13 14:03:08;;;;;;;11.48;3.38;;;;;;;;;;6191999;23;20023;-89
2022/04/13 14:05:56;;;;;;;7.30;3.55;;;;;;;;;;6192011;23;20087;-88
2022/04/13 14:08:41;;;;;;;14.30;3.10;;;;;;;;;;6214224;23;20019;-89
2022/04/13 14:11:26;;;;;;;9.27;3.72;;;;;;;;;;6192851;23;20059;-89
2022/04/13 14:14:10;;;;;;;12.27;4.47;;;;;;;;;;6192304;23;20012;-89
2022/04/13 14:16:56;;;;;;;8.77;3.90;;;;;;;;;;6191943;23;20016;-88
2022/04/13 14:19:40;;;;;;;12.90;4.90;;;;;;;;;;6192020;23;20092;-91
2022/04/13 14:22:24;;;;;;;13.05;4.47;;;;;;;;;;6192417;23;20449;-86
2022/04/13 14:25:13;;;;;;;10.18;4.30;;;16.30;99.90;;;;;;6192252;23;20035;-88
2022/04/13 14:27:58;;;;;;;10.95;5.22;;;16.50;99.90;;;;;;6191526;23;20469;-88
2022/04/13 14:30:44;;;;;;;13.32;4.65;;;;;;;;;;6191635;23;20449;-87
2022/04/13 14:33:28;;;;;;;10.52;4.47;;;;;;;;;;6191858;23;20058;-88
2022/04/13 14:36:13;;;;;;;10.18;4.00;;;;;;;;;;6192345;23;20015;-85
2022/04/13 14:39:00;;;;;;;11.82;3.97;;;;;;;;;;6214012;23;20015;-87
2022/04/13 14:41:45;;;;;;;10.23;3.50;;;;;;;;;;6191186;23;20015;-87
2022/04/13 14:44:32;;;;;;;13.43;3.88;;;;;;;;;;6170928;23;20019;-87
2022/04/13 14:47:17;;;;;;;11.60;3.63;;;;;;;;;;6192201;23;20015;-87
2022/04/13 14:50:03;;;;;;;11.52;3.78;;;16.70;99.90;;;;;;6170822;23;20031;-86
2022/04/13 14:52:48;;;;;;;10.15;4.10;;;;;;;;;;6213710;23;20015;-86
2022/04/13 14:55:32;;;;;;;11.55;4.40;;;;;;;;;;6191894;23;20091;-87
2022/04/13 14:58:19;;;;;;;9.73;4.50;;;;;;;;;;6170910;23;20078;-87
2022/04/13 15:01:04;;;;;;;12.35;4.40;;;;;;;;;;6191334;23;20765;-85
2022/04/13 15:03:50;;;;;;;14.80;4.60;;;;;;;;;;6170222;23;20390;-85
2022/04/13 15:06:34;;;;;;;11.88;4.82;;;;;;;;;;6192191;23;20019;-86
2022/04/13 15:09:22;;;;;;;11.38;4.13;;;;;;;;;;6171073;23;20024;-85
2022/04/13 15:12:06;;;;;;;14.00;4.50;;;;;;;;;;6191268;23;20649;-85
2022/04/13 15:14:51;;;;;;;12.85;4.47;;;;;;;;;;6191163;23;20098;-85
2022/04/13 15:17:37;;;;;;;11.13;3.95;;;;;;;;;;6192128;23;20016;-84
2022/04/13 15:20:21;;;;;;;9.30;3.80;;;;;;;;;;6191851;23;20012;-84
2022/04/13 15:23:06;;;;;;;7.97;3.65;;;;;;;;;;6191621;23;20078;-87
2022/04/13 15:25:51;;;;;;;12.43;4.00;;;;;;;;;;6193411;23;20016;-86
2022/04/13 15:28:35;;;;;;;9.25;3.72;;;;;;;;;;6191518;23;20075;-86
2022/04/13 15:31:20;;;;;;;9.73;4.18;;;;;;;;;;6191006;23;20090;-87
2022/04/13 15:34:05;;;;;;;7.55;3.53;;;;;;;;;;6193209;23;20423;-87
2022/04/13 15:36:50;;;;;;;9.52;3.38;;;;;;;;;;6172345;23;20100;-90
2022/04/13 15:39:37;;;;;;;10.07;3.60;;;;;;;;;;6193553;23;20074;-86
2022/04/13 15:42:25;;;;;;;10.85;3.17;;;;;;;;;;6193336;23;20338;-92
2022/04/13 15:45:12;;;;;;;11.00;3.10;;;;;;;;;;6193642;23;20657;-92
2022/04/13 15:47:59;;;;;;;19.52;3.50;;;;;;;;;;6170763;23;20027;-88
2022/04/13 15:50:51;;;;;;;8.95;3.30;;;17.20;99.90;;;;;;6194551;23;20032;-91
2022/04/13 15:53:36;;;;;;;6.47;2.50;;;17.20;99.90;;;;;;6216903;23;20063;-87
2022/04/13 15:56:21;;;;;;;8.20;3.15;;;;;;;;;;6216539;23;20027;-90
2022/04/13 15:59:07;;;;;;;7.10;2.25;;;;;;;;;;6172959;23;20394;-91
2022/04/13 16:01:58;;;;;;;6.53;2.22;;;;;;;;;;6196392;23;20456;-90